Pagrindinis puslapis
METAR-TAF:

METAR-TAF

Oro uostai :

Kerteh, Malaizija

platuma: 04-32-15N, ilguma: 103-25-36E, Aukštis: 5 m

Dabartinis oras

Ataskaita buvo paskelbta 1 valandą ir 7 minutes, ne 00:00 UTC
Ramus vėjas
Temperatūra 22°C
Drėgmė 94%
Slėgis 1008 hPa
Matomumas: 6000 m
Mažai debesys ne aukštis 200 ft
Išsisklaidę debesys ne aukštis 1400 ft

METAR: WMKE 260000Z 00000KT 6000 FEW002 SCT014 22/21 Q1008

Laikas: 09:07 (01:07 UTC)

Prognozė

Ataskaita buvo paskelbta 2 valandos ir 7 minutes, ne 23:00 UTC
Prognozė galioja nuo 26 metu 00 UTC su 27 metu 00 UTC
Vėjas 3 kt nuo kintamojo kryptimis
Matomumas 10 km arba daugiau
Išsisklaidę debesys ne aukštis 1400 ft
Tapsmas
nuo 26 metu 02 UTC su 26 metu 03 UTC
Vėjas 10 kt iš Šiaurės/Šiaurės Rytų
Mažai debesys ne aukštis 1400 ft
Tapsmas
nuo 26 metu 12 UTC su 26 metu 13 UTC
Vėjas 3 kt nuo kintamojo kryptimis
Mažai debesys ne aukštis 1500 ft

TAF: WMKE 252300Z 2600/2700 VRB03KT 9999 SCT014 BECMG 2602/2603 03010KT FEW014 BECMG 2612/2613 VRB03KT FEW015

Orai ataskaitas ir orų prognozės (METAR, TAF).

turimą stotys yra geltonos ir raudonos taškus žemėlapyje.

Perkelti pele per norėdami pamatyti stoties vardą.

Tada spustelėkite, norėdami matyti oro stebėjimo ir prognozės.

Norėdami pakeisti žemėlapį: spustelėkite ant žalios mygtukų su juodo kryžiaus žemyn,; žalią mygtuką su brūkšneliu, jei norite nutolinti; arba žalių rodyklių gretimoms žemėlapius.


METAR-TAF: